createdAt,value
2019-02-14T00:00:21.516Z,9.10
2019-02-14T00:03:02.717Z,8.90
2019-02-14T00:05:43.793Z,8.90
2019-02-14T00:08:24.235Z,9.10
2019-02-14T00:11:05.078Z,8.90
2019-02-14T00:13:45.944Z,9.00
2019-02-14T00:16:26.589Z,9.00
2019-02-14T00:19:07.255Z,9.00
2019-02-14T00:21:48.046Z,9.10
2019-02-14T00:24:28.787Z,9.10
2019-02-14T00:27:09.818Z,9.00
2019-02-14T00:29:50.336Z,9.00
2019-02-14T00:32:31.280Z,9.10
2019-02-14T00:34:59.696Z,8.90
2019-02-14T00:37:47.454Z,9.00
2019-02-14T00:40:35.494Z,8.80
2019-02-14T00:43:23.222Z,8.90
2019-02-14T00:46:11.056Z,8.70
2019-02-14T00:48:58.811Z,8.90
2019-02-14T00:51:46.604Z,8.90
2019-02-14T00:54:34.417Z,8.80
2019-02-14T00:57:22.572Z,9.00
2019-02-14T01:03:09.435Z,8.70
2019-02-14T01:05:57.268Z,8.80
2019-02-14T01:08:45.040Z,8.80
2019-02-14T01:11:32.790Z,8.90
2019-02-14T01:14:20.552Z,8.90
2019-02-14T01:17:08.309Z,9.00
2019-02-14T01:19:56.060Z,9.00
2019-02-14T01:22:37.142Z,8.90
2019-02-14T01:25:17.952Z,8.70
2019-02-14T01:27:58.744Z,8.70
2019-02-14T01:30:39.700Z,8.90
2019-02-14T01:33:20.304Z,8.90
2019-02-14T01:36:01.473Z,8.90
2019-02-14T01:38:42.188Z,8.60
2019-02-14T01:41:23.093Z,8.80
2019-02-14T01:44:03.584Z,8.70
2019-02-14T01:46:44.280Z,8.70
2019-02-14T01:49:25.017Z,8.80
2019-02-14T01:51:53.481Z,8.80
2019-02-14T01:54:41.232Z,8.70
2019-02-14T01:57:29.012Z,8.50
2019-02-14T02:00:16.773Z,8.50
2019-02-14T02:03:04.901Z,8.50
2019-02-14T02:05:52.650Z,8.60
2019-02-14T02:08:40.427Z,8.60
2019-02-14T02:11:28.257Z,8.50
2019-02-14T02:14:16.033Z,8.60
2019-02-14T02:17:03.781Z,8.50
2019-02-14T02:19:51.557Z,8.60
2019-02-14T02:22:39.549Z,8.50
2019-02-14T02:25:27.329Z,8.50
2019-02-14T02:28:08.528Z,8.60
2019-02-14T02:30:49.206Z,8.60
2019-02-14T02:33:29.765Z,8.70
2019-02-14T02:36:10.637Z,8.60
2019-02-14T02:38:51.391Z,8.60
2019-02-14T02:41:32.104Z,8.60
2019-02-14T02:44:13.066Z,8.50
2019-02-14T02:46:53.868Z,8.60
2019-02-14T02:49:35.124Z,8.70
2019-02-14T02:52:15.598Z,8.80
2019-02-14T02:54:56.660Z,8.70
2019-02-14T02:57:39.548Z,8.60
2019-02-14T03:00:19.813Z,8.60
2019-02-14T03:03:00.739Z,8.60
2019-02-14T03:05:41.006Z,8.70
2019-02-14T03:11:06.165Z,8.70
2019-02-14T03:13:53.928Z,8.50
2019-02-14T03:16:42.062Z,8.50
2019-02-14T03:19:29.818Z,8.60
2019-02-14T03:22:10.753Z,8.90
2019-02-14T03:24:51.331Z,8.80
2019-02-14T03:27:32.178Z,8.60
2019-02-14T03:30:12.727Z,8.80
2019-02-14T03:32:54.609Z,8.60
2019-02-14T03:35:35.502Z,8.50
2019-02-14T03:38:16.130Z,8.50
2019-02-14T03:40:56.856Z,8.60
2019-02-14T03:43:37.459Z,8.70
2019-02-14T03:46:18.606Z,8.60
2019-02-14T03:48:59.688Z,8.50
2019-02-14T03:51:40.833Z,8.30
2019-02-14T03:54:21.361Z,8.60
2019-02-14T03:57:02.517Z,8.40
2019-02-14T03:59:43.930Z,8.60
2019-02-14T04:02:24.505Z,8.40
2019-02-14T04:05:05.005Z,8.50
2019-02-14T04:07:45.624Z,8.50
2019-02-14T04:10:26.120Z,8.80
2019-02-14T04:13:07.067Z,8.60
2019-02-14T04:15:47.997Z,8.80
2019-02-14T04:18:28.692Z,8.60
2019-02-14T04:21:09.589Z,8.40
2019-02-14T04:23:50.240Z,8.40
2019-02-14T04:26:31.005Z,8.50
2019-02-14T04:28:59.424Z,8.50
2019-02-14T04:31:47.163Z,8.40
2019-02-14T04:34:34.937Z,8.30
2019-02-14T04:37:22.712Z,8.30
2019-02-14T04:40:33.600Z,8.20
2019-02-14T04:43:19.280Z,8.20
2019-02-14T04:46:07.025Z,8.30
2019-02-14T04:48:54.788Z,8.30
2019-02-14T04:51:42.533Z,8.30
2019-02-14T04:54:30.303Z,8.50
2019-02-14T04:57:18.499Z,8.50
2019-02-14T05:00:25.572Z,8.30
2019-02-14T05:03:13.364Z,8.40
2019-02-14T05:06:01.613Z,8.50
2019-02-14T05:08:50.600Z,8.40
2019-02-14T05:11:38.677Z,8.30
2019-02-14T05:14:26.444Z,8.40
2019-02-14T05:17:33.920Z,8.30
2019-02-14T05:20:21.925Z,8.40
2019-02-14T05:23:09.765Z,8.70
2019-02-14T05:25:57.508Z,8.70
2019-02-14T05:28:45.278Z,8.60
2019-02-14T05:31:33.268Z,8.50
2019-02-14T05:34:21.021Z,8.40
2019-02-14T05:37:08.792Z,8.30
2019-02-14T05:39:56.533Z,8.30
2019-02-14T05:42:44.312Z,8.50
2019-02-14T05:45:32.072Z,8.60
2019-02-14T05:48:20.060Z,8.60
2019-02-14T05:51:07.826Z,8.60
2019-02-14T05:53:55.668Z,8.80
2019-02-14T05:56:43.498Z,8.90
2019-02-14T05:59:31.272Z,8.90
2019-02-14T06:01:59.740Z,8.80
2019-02-14T06:04:47.508Z,8.80
2019-02-14T06:07:35.325Z,8.80
2019-02-14T06:10:23.121Z,8.70
2019-02-14T06:13:10.887Z,8.60
2019-02-14T06:15:58.973Z,8.60
2019-02-14T06:18:46.819Z,8.50
2019-02-14T06:21:34.588Z,8.40
2019-02-14T06:24:15.556Z,8.40
2019-02-14T06:26:56.285Z,8.50
2019-02-14T06:29:37.264Z,8.50
2019-02-14T06:32:18.277Z,8.60
2019-02-14T06:34:58.977Z,8.60
2019-02-14T06:37:39.996Z,8.60
2019-02-14T06:40:20.693Z,8.60
2019-02-14T06:43:01.665Z,8.70
2019-02-14T06:45:42.660Z,8.60
2019-02-14T06:48:23.497Z,8.50
2019-02-14T06:51:04.671Z,8.50
2019-02-14T06:53:45.448Z,8.50
2019-02-14T06:56:26.592Z,8.60
2019-02-14T06:59:07.666Z,8.70
2019-02-14T07:01:48.418Z,8.70
2019-02-14T07:04:29.021Z,8.60
2019-02-14T07:07:17.845Z,8.60
2019-02-14T07:09:51.856Z,8.60
2019-02-14T07:12:32.768Z,8.60
2019-02-14T07:15:13.501Z,8.70
2019-02-14T07:17:54.210Z,8.70
2019-02-14T07:20:35.270Z,8.70
2019-02-14T07:23:16.056Z,8.80
2019-02-14T07:25:57.105Z,8.60
2019-02-14T07:28:37.650Z,8.60
2019-02-14T07:31:18.337Z,8.60
2019-02-14T07:33:46.740Z,8.60
2019-02-14T07:36:34.506Z,8.70
2019-02-14T07:39:22.279Z,8.80
2019-02-14T07:42:10.104Z,8.80
2019-02-14T07:44:57.862Z,8.80
2019-02-14T07:47:45.712Z,8.80
2019-02-14T07:50:33.466Z,8.70
2019-02-14T07:53:21.236Z,8.80
2019-02-14T07:56:08.985Z,8.80
2019-02-14T07:58:56.813Z,8.80
2019-02-14T08:01:44.589Z,8.80
2019-02-14T08:04:32.335Z,8.70
2019-02-14T08:07:20.127Z,8.70
2019-02-14T08:10:28.609Z,8.80
2019-02-14T08:13:16.403Z,8.80
2019-02-14T08:16:04.741Z,8.50
2019-02-14T08:18:52.518Z,8.50
2019-02-14T08:21:40.272Z,8.50
2019-02-14T08:24:20.492Z,8.50
2019-02-14T08:27:01.512Z,8.50
2019-02-14T08:29:42.064Z,8.50
2019-02-14T08:32:23.262Z,8.30
2019-02-14T08:35:03.938Z,8.40
2019-02-14T08:37:46.063Z,8.30
2019-02-14T08:40:26.594Z,8.40
2019-02-14T08:43:07.377Z,8.30
2019-02-14T08:45:48.150Z,8.10
2019-02-14T08:48:28.989Z,8.30
2019-02-14T08:51:09.632Z,8.30
2019-02-14T08:53:50.589Z,8.40
2019-02-14T08:56:31.229Z,8.30
2019-02-14T08:59:11.966Z,8.40
2019-02-14T09:01:53.031Z,8.50
2019-02-14T09:04:34.086Z,8.50
2019-02-14T09:07:15.027Z,8.50
2019-02-14T09:09:55.617Z,8.60
2019-02-14T09:12:36.366Z,8.50
2019-02-14T09:15:17.350Z,8.60
2019-02-14T09:17:57.858Z,8.70
2019-02-14T09:20:38.576Z,8.90
2019-02-14T09:23:19.250Z,8.70
2019-02-14T09:26:02.327Z,8.60
2019-02-14T09:28:43.392Z,8.40
2019-02-14T09:31:24.165Z,8.50
2019-02-14T09:34:05.305Z,8.50
2019-02-14T09:36:46.305Z,8.60
2019-02-14T09:39:26.832Z,8.60
2019-02-14T09:42:07.527Z,8.50
2019-02-14T09:44:48.345Z,8.50
2019-02-14T09:47:29.104Z,8.70
2019-02-14T09:50:10.004Z,8.80
2019-02-14T09:52:50.811Z,8.90
2019-02-14T09:55:31.331Z,9.00
2019-02-14T09:58:12.582Z,9.00
2019-02-14T10:00:53.967Z,9.10
2019-02-14T10:03:34.543Z,9.20
2019-02-14T10:06:15.228Z,9.30
2019-02-14T10:08:56.320Z,9.10
2019-02-14T10:11:37.484Z,9.10
2019-02-14T10:14:18.360Z,9.10
2019-02-14T10:16:58.976Z,9.40
2019-02-14T10:19:39.925Z,9.50
2019-02-14T10:22:21.409Z,9.20
2019-02-14T10:25:02.073Z,9.20
2019-02-14T10:27:42.595Z,9.60
2019-02-14T10:30:23.207Z,9.50
2019-02-14T10:33:04.072Z,9.60
2019-02-14T10:35:44.870Z,9.80
2019-02-14T10:38:25.596Z,10.00
2019-02-14T10:41:06.061Z,10.10
2019-02-14T10:43:48.807Z,10.00
2019-02-14T10:46:29.759Z,10.00
2019-02-14T10:49:10.784Z,10.00
2019-02-14T10:51:51.273Z,10.10
2019-02-14T10:54:32.086Z,10.30
2019-02-14T10:57:12.704Z,10.00
2019-02-14T10:59:53.593Z,10.10
2019-02-14T11:02:34.169Z,10.00
2019-02-14T11:05:14.876Z,10.20
2019-02-14T11:07:55.654Z,10.30
2019-02-14T11:10:36.297Z,10.80
2019-02-14T11:13:17.117Z,10.90
2019-02-14T11:15:57.853Z,10.80
2019-02-14T11:18:44.314Z,10.80
2019-02-14T11:21:21.004Z,10.70
2019-02-14T11:24:01.952Z,10.90
2019-02-14T11:26:42.861Z,10.80
2019-02-14T11:29:23.856Z,10.90
2019-02-14T11:32:04.877Z,11.20
2019-02-14T11:34:45.548Z,11.30
2019-02-14T11:37:26.521Z,11.30
2019-02-14T11:40:07.604Z,11.40
2019-02-14T11:42:48.109Z,11.50
2019-02-14T11:45:28.658Z,11.60
2019-02-14T11:48:09.444Z,11.80
2019-02-14T11:50:50.069Z,11.80
2019-02-14T11:53:31.053Z,12.10
2019-02-14T11:55:59.488Z,12.10
2019-02-14T11:58:47.232Z,12.20
2019-02-14T12:01:35.004Z,12.40
2019-02-14T12:04:22.796Z,12.70
2019-02-14T12:07:10.841Z,12.50
2019-02-14T12:09:58.753Z,12.60
2019-02-14T12:12:46.562Z,12.90
2019-02-14T12:15:34.396Z,12.80
2019-02-14T12:18:24.049Z,13.00
2019-02-14T12:21:11.732Z,13.00
2019-02-14T12:23:59.502Z,13.00
2019-02-14T12:26:47.244Z,13.60
2019-02-14T12:29:27.950Z,13.40
2019-02-14T12:32:08.703Z,13.60
2019-02-14T12:34:49.317Z,13.40
2019-02-14T12:37:30.125Z,13.80
2019-02-14T12:40:11.165Z,13.90
2019-02-14T12:42:51.663Z,13.80
2019-02-14T12:45:32.353Z,13.80
2019-02-14T12:48:13.375Z,14.20
2019-02-14T12:50:53.929Z,14.30
2019-02-14T12:53:34.724Z,14.40
2019-02-14T12:56:15.404Z,14.10
2019-02-14T12:58:56.354Z,14.00
2019-02-14T13:01:37.382Z,14.00
2019-02-14T13:04:18.520Z,13.90
2019-02-14T13:06:59.374Z,13.90
2019-02-14T13:09:39.789Z,14.10
2019-02-14T13:12:20.425Z,14.30
2019-02-14T13:15:01.244Z,14.20
2019-02-14T13:17:29.993Z,14.20
2019-02-14T13:20:17.855Z,14.50
2019-02-14T13:23:05.652Z,14.50
2019-02-14T13:25:46.230Z,14.40
2019-02-14T13:28:26.844Z,14.50
2019-02-14T13:31:07.412Z,14.30
2019-02-14T13:33:48.464Z,14.70
2019-02-14T13:36:29.488Z,14.90
2019-02-14T13:39:09.805Z,14.60
2019-02-14T13:41:50.676Z,14.30
2019-02-14T13:44:31.242Z,14.50
2019-02-14T13:46:59.908Z,14.40
2019-02-14T13:49:47.686Z,14.60
2019-02-14T13:52:36.215Z,14.60
2019-02-14T13:55:24.988Z,14.90
2019-02-14T13:58:12.757Z,14.80
2019-02-14T14:01:00.496Z,14.80
2019-02-14T14:03:48.607Z,14.70
2019-02-14T14:06:36.372Z,14.80
2019-02-14T14:09:24.143Z,14.60
2019-02-14T14:12:11.904Z,14.50
2019-02-14T14:14:59.655Z,14.50
2019-02-14T14:17:47.420Z,14.70
2019-02-14T14:20:35.521Z,14.50
2019-02-14T14:23:23.369Z,14.30
2019-02-14T14:26:04.197Z,14.20
2019-02-14T14:28:44.884Z,14.10
2019-02-14T14:31:25.754Z,14.10
2019-02-14T14:34:06.784Z,14.20
2019-02-14T14:36:47.455Z,14.20
2019-02-14T14:39:28.465Z,14.00
2019-02-14T14:42:10.637Z,13.90
2019-02-14T14:44:50.805Z,13.80
2019-02-14T14:47:31.542Z,13.90
2019-02-14T14:50:12.253Z,13.80
2019-02-14T14:52:53.277Z,13.80
2019-02-14T14:55:33.825Z,13.60
2019-02-14T14:58:14.509Z,13.60
2019-02-14T15:00:55.348Z,13.60
2019-02-14T15:03:35.905Z,13.60
2019-02-14T15:06:16.372Z,13.50
2019-02-14T15:08:57.125Z,13.60
2019-02-14T15:11:37.541Z,13.60
2019-02-14T15:14:18.261Z,13.60
2019-02-14T15:16:59.453Z,13.70
2019-02-14T15:19:40.000Z,13.70
2019-02-14T15:22:20.512Z,13.60
2019-02-14T15:25:01.108Z,13.60
2019-02-14T15:27:41.833Z,13.70
2019-02-14T15:30:22.335Z,13.60
2019-02-14T15:33:02.765Z,13.50
2019-02-14T15:35:43.580Z,13.50
2019-02-14T15:38:24.088Z,13.50
2019-02-14T15:41:04.681Z,13.40
2019-02-14T15:43:45.498Z,13.30
2019-02-14T15:46:26.410Z,13.20
2019-02-14T15:49:07.049Z,13.20
2019-02-14T15:51:47.881Z,13.10
2019-02-14T15:54:28.164Z,13.20
2019-02-14T15:57:08.684Z,13.10
2019-02-14T15:59:49.127Z,13.10
2019-02-14T16:02:30.705Z,13.10
2019-02-14T16:05:11.962Z,13.00
2019-02-14T16:07:53.078Z,13.00
2019-02-14T16:10:33.825Z,12.90
2019-02-14T16:13:14.201Z,12.80
2019-02-14T16:15:56.607Z,12.80
2019-02-14T16:18:37.508Z,12.80
2019-02-14T16:21:07.723Z,12.70
2019-02-14T16:23:55.521Z,12.70
2019-02-14T16:26:43.289Z,12.70
2019-02-14T16:29:31.034Z,12.70
2019-02-14T16:32:18.793Z,12.50
2019-02-14T16:35:27.301Z,12.50
2019-02-14T16:38:15.049Z,12.50
2019-02-14T16:41:02.828Z,12.50
2019-02-14T16:43:50.861Z,12.50
2019-02-14T16:46:38.624Z,12.50
2019-02-14T16:49:26.365Z,12.40
2019-02-14T16:52:14.140Z,12.40
2019-02-14T16:55:01.874Z,12.40
2019-02-14T16:57:49.640Z,12.40
2019-02-14T17:00:29.861Z,12.30
2019-02-14T17:03:10.964Z,12.20
2019-02-14T17:05:51.536Z,12.20
2019-02-14T17:08:32.385Z,12.20
2019-02-14T17:11:12.766Z,12.20
2019-02-14T17:13:53.609Z,12.20
2019-02-14T17:16:34.450Z,12.10
2019-02-14T17:19:14.920Z,12.20
2019-02-14T17:21:55.686Z,12.00
2019-02-14T17:24:36.651Z,12.10
2019-02-14T17:27:17.258Z,12.10
2019-02-14T17:29:58.072Z,12.00
2019-02-14T17:32:38.675Z,12.10
2019-02-14T17:35:19.395Z,12.00
2019-02-14T17:38:00.458Z,11.90
2019-02-14T17:40:46.075Z,11.90
2019-02-14T17:43:23.655Z,11.90
2019-02-14T17:46:04.016Z,11.90
2019-02-14T17:48:45.009Z,11.90
2019-02-14T17:51:25.782Z,11.90
2019-02-14T17:54:06.680Z,11.90
2019-02-14T17:56:47.025Z,12.00
2019-02-14T17:59:27.928Z,11.90
2019-02-14T18:02:08.574Z,11.90
2019-02-14T18:04:49.549Z,11.80
2019-02-14T18:07:30.411Z,11.70
2019-02-14T18:10:11.106Z,11.70
2019-02-14T18:12:51.849Z,11.60
2019-02-14T18:15:32.632Z,11.70
2019-02-14T18:18:12.913Z,11.70
2019-02-14T18:20:53.777Z,11.60
2019-02-14T18:23:34.419Z,11.60
2019-02-14T18:26:15.154Z,11.40
2019-02-14T18:28:55.984Z,11.40
2019-02-14T18:31:36.713Z,11.40
2019-02-14T18:34:17.409Z,11.40
2019-02-14T18:36:58.092Z,11.40
2019-02-14T18:39:38.620Z,11.40
2019-02-14T18:42:19.449Z,11.40
2019-02-14T18:45:00.054Z,11.30
2019-02-14T18:47:40.841Z,11.20
2019-02-14T18:50:21.764Z,11.20
2019-02-14T18:53:02.920Z,11.20
2019-02-14T18:55:43.678Z,11.20
2019-02-14T18:58:26.362Z,11.20
2019-02-14T19:01:07.125Z,11.00
2019-02-14T19:03:48.109Z,11.20
2019-02-14T19:06:29.158Z,11.20
2019-02-14T19:09:09.561Z,11.10
2019-02-14T19:11:50.157Z,11.00
2019-02-14T19:14:30.901Z,11.00
2019-02-14T19:17:11.873Z,11.00
2019-02-14T19:19:52.357Z,11.00
2019-02-14T19:22:32.975Z,10.90
2019-02-14T19:25:13.592Z,10.90
2019-02-14T19:27:54.935Z,10.90
2019-02-14T19:30:35.275Z,10.90
2019-02-14T19:33:16.062Z,10.90
2019-02-14T19:35:56.699Z,10.90
2019-02-14T19:38:37.451Z,10.80
2019-02-14T19:41:25.110Z,10.80
2019-02-14T19:44:00.243Z,10.70
2019-02-14T19:46:43.430Z,10.70
2019-02-14T19:49:24.235Z,10.70
2019-02-14T19:52:05.174Z,10.70
2019-02-14T19:54:46.126Z,10.60
2019-02-14T19:57:27.126Z,10.60
2019-02-14T20:00:08.129Z,10.60
2019-02-14T20:02:48.741Z,10.60
2019-02-14T20:05:29.248Z,10.50
2019-02-14T20:08:10.209Z,10.60
2019-02-14T20:10:51.008Z,10.70
2019-02-14T20:13:31.610Z,10.60
2019-02-14T20:16:11.972Z,10.60
2019-02-14T20:18:52.636Z,10.60
2019-02-14T20:21:33.209Z,10.60
2019-02-14T20:24:13.929Z,10.60
2019-02-14T20:26:54.773Z,10.50
2019-02-14T20:29:36.056Z,10.50
2019-02-14T20:32:16.575Z,10.50
2019-02-14T20:34:57.617Z,10.60
2019-02-14T20:37:38.337Z,10.50
2019-02-14T20:40:19.194Z,10.50
2019-02-14T20:43:00.041Z,10.40
2019-02-14T20:45:40.855Z,10.50
2019-02-14T20:48:21.872Z,10.40
2019-02-14T20:51:02.473Z,10.40
2019-02-14T20:53:43.029Z,10.30
2019-02-14T20:56:23.927Z,10.30
2019-02-14T20:59:04.843Z,10.30
2019-02-14T21:01:45.809Z,10.30
2019-02-14T21:04:26.369Z,10.20
2019-02-14T21:07:07.647Z,10.20
2019-02-14T21:09:48.703Z,10.20
2019-02-14T21:12:29.351Z,10.20
2019-02-14T21:15:09.959Z,10.20
2019-02-14T21:17:50.928Z,10.20
2019-02-14T21:20:32.036Z,10.20
2019-02-14T21:23:12.575Z,10.10
2019-02-14T21:25:53.090Z,10.10
2019-02-14T21:28:33.628Z,10.10
2019-02-14T21:31:14.271Z,10.00
2019-02-14T21:33:54.843Z,10.10
2019-02-14T21:36:35.200Z,10.00
2019-02-14T21:39:15.930Z,10.00
2019-02-14T21:42:17.399Z,10.00
2019-02-14T21:44:39.560Z,9.90
2019-02-14T21:47:20.067Z,9.90
2019-02-14T21:50:00.839Z,9.90
2019-02-14T21:52:41.404Z,9.70
2019-02-14T21:55:21.865Z,9.60
2019-02-14T21:58:05.012Z,9.60
2019-02-14T22:00:45.723Z,9.50
2019-02-14T22:03:26.461Z,9.40
2019-02-14T22:06:07.144Z,9.40
2019-02-14T22:08:48.222Z,9.60
2019-02-14T22:11:33.990Z,9.60
2019-02-14T22:14:11.500Z,9.60
2019-02-14T22:16:51.779Z,9.50
2019-02-14T22:19:32.374Z,9.70
2019-02-14T22:22:12.836Z,9.60
2019-02-14T22:24:53.441Z,9.40
2019-02-14T22:27:34.116Z,9.40
2019-02-14T22:30:18.425Z,9.30
2019-02-14T22:32:59.541Z,9.30
2019-02-14T22:35:40.357Z,9.30
2019-02-14T22:38:21.016Z,9.30
2019-02-14T22:41:01.895Z,9.10
2019-02-14T22:43:42.489Z,9.10
2019-02-14T22:46:23.105Z,9.00
2019-02-14T22:49:03.957Z,9.10
2019-02-14T22:51:44.428Z,9.00
2019-02-14T22:54:25.213Z,9.00
2019-02-14T22:57:06.088Z,8.90
2019-02-14T22:59:46.627Z,8.90
2019-02-14T23:02:27.776Z,8.80
2019-02-14T23:05:09.821Z,8.70
2019-02-14T23:07:50.715Z,8.70
2019-02-14T23:10:31.181Z,8.60
2019-02-14T23:13:11.954Z,8.80
2019-02-14T23:15:52.692Z,8.70
2019-02-14T23:18:33.253Z,8.80
2019-02-14T23:21:14.156Z,8.90
2019-02-14T23:23:54.924Z,8.80
2019-02-14T23:26:35.856Z,8.80
2019-02-14T23:29:16.637Z,8.60
2019-02-14T23:31:57.229Z,8.60
2019-02-14T23:34:37.832Z,8.80
2019-02-14T23:37:18.793Z,8.90
2019-02-14T23:39:57.542Z,8.80
2019-02-14T23:42:45.292Z,8.70
2019-02-14T23:45:33.176Z,8.70
2019-02-14T23:48:21.035Z,8.70
2019-02-14T23:51:08.860Z,8.70
2019-02-14T23:53:56.621Z,8.60
2019-02-14T23:56:44.364Z,8.60
2019-02-14T23:59:32.395Z,8.60
